Tiempo atmosférico en la estación meteorológica de Barbadillo, Salamanca (817 m.)



Fecha
DESCASC
Temp. máxima en grados centígrados (hora)
DESCASC
Temp. mínima en grados centígrados (hora)
DESCASC
Temp. media en grados centígrados
DESCASC
Racha de viento máxima en m/sg (hora)
DESCASC
Velocidad máxima media en intervalos de 10 minutos(hora)
DESCASC
Precipitaciones diarias en mm
DESCASC
Precipitaciones de 00:00 a 06:00 en mm
DESCASC
Precipitaciones de 06:00 a 12:00 en mm
DESCASC
Precipitaciones de 12:00 a 18:00 en mm
DESCASC
Precipitaciones de 18:00 a 24:00 en mm
DESCASC
18-01-2018 13.9 (17:00) -2.6 (06:10) 5.6 3.33 (15:20) 2.22 (01:30) 0 0 0 0 0
17-01-2018 11.1 (15:50) -0.3 (23:59) 5.4 7.78 (14:50) 4.72 (14:50) 0 0 0 0 0
16-01-2018 11.3 (17:20) 4.9 (00:20) 8.1 9.44 (14:40) 6.11 (14:40) 0 0 0 0 0
15-01-2018 8.3 (15:20) -4.1 (05:40) 2.1 6.67 (16:20) 4.72 (16:00) 0 0 0 0 0
14-01-2018 4.9 (16:00) -2.3 (-00:0) 1.3 6.67 (04:00) 3.89 (04:00) 0.4 0.4 0 0 0
13-01-2018 5.9 (16:30) -0.6 (-00:0) 2.7 10.83 (18:40) 6.39 (18:40) 6.2 0 3.6 0.6 2
12-01-2018 7.9 (15:30) -3.9 (-00:0) 2 4.44 (01:40) 2.78 (11:00) 0 0 0 0 0
11-01-2018 6.2 (14:30) 0.4 (00:00) 3.3 15 (10:50) 7.22 (03:00) 0 0 0 0 0
10-01-2018 7.3 (11:40) 2.4 (00:00) 4.9 15.28 (15:50) 8.89 (14:50) 3.2 0.2 0 3 0
09-01-2018 5.7 (20:50) -4.3 (-00:0) 0.7 14.72 (13:10) 9.72 (12:50) 0.8 0 0.6 0.2 0
08-01-2018 4 (15:40) -7.3 (-00:0) -1.7 6.39 (00:10) 3.89 (00:10) 0 0 0 0 0
07-01-2018 2.6 (14:50) -1 (-00:0) 0.8 7.78 (04:00) 4.17 (21:10) 9.4 0 1.4 7.4 0.6
06-01-2018 4 (00:00) 1.6 (00:00) 2.8 7.5 (16:50) 4.44 (16:40) 0.4 0 0 0.4 0
05-01-2018 9.1 (00:40) 4 (00:00) 6.6 14.44 (02:00) 7.78 (04:40) 11.4 0 1.8 5.2 4.4
04-01-2018 12 (15:40) 8.8 (23:59) 10.4 11.11 (16:50) 6.67 (15:20) 0 0 0 0 0
03-01-2018 13.8 (15:50) 9.6 (00:00) 11.7 10.28 (15:50) 6.39 (13:00) 0 0 0 0 0
02-01-2018 10.3 (22:50) 5.7 (00:00) 8 9.44 (11:50) 5.56 (01:30) 0 0 0 0 0
01-01-2018 8.5 (18:50) 1.5 (00:00) 5 12.78 (10:50) 7.5 (13:30) 0 0 0 0 0
31-12-2017 10.3 (13:10) 3.4 (00:00) 6.9 16.67 (15:20) 9.72 (15:20) 2.2 0 0 2.2 0
30-12-2017 12 (16:20) 4.8 (00:00) 8.4 8.89 (12:50) 5.28 (12:50) 0 0 0 0 0
29-12-2017 13 (15:10) 7.3 (00:00) 10.2 10.56 (11:50) 5.83 (11:50) 0.6 0 0.6 0 0
28-12-2017 12.1 (16:00) 5.2 (00:00) 8.7 11.67 (12:40) 7.22 (15:10) 1 1 0 0 0
27-12-2017 7.5 (00:00) 2.6 (00:00) 5 17.5 (00:20) 10.28 (00:10) 4.8 3.4 0 0.2 1.2
26-12-2017 8 (23:10) 2.7 (00:00) 5.4 20.56 (23:20) 11.39 (23:50) 4.2 0 0 0.4 3.8
25-12-2017 8.7 (14:20) -4.2 (-00:0) 2.3 12.22 (16:00) 7.78 (14:30) 1.6 0 0 0 1.6
24-12-2017 10.1 (15:50) -5.7 (-00:0) 2.2 4.17 (17:20) 2.5 (17:00) 0 0 0 0 0
23-12-2017 4.7 (15:50) -4.6 (-00:0) 0 6.39 (12:20) 4.44 (13:10) 0 0 0 0 0
22-12-2017 11.2 (16:10) -4.1 (-00:0) 3.5 5.56 (16:10) 3.89 (15:40) 0 0 0 0 0

Gráficas

Temp. máximas Temp. mínimas Temp. medias Precipitaciones Rachas de viento máximas Velocidades máximas media en intervalos de 10 minutos

Datos horarios

Fecha y hora oficial Temperatura (ºC) Velocidad del viento (km/h) Dirección del viento Racha (km/h) Dirección de racha Precipitación (mm) Presión (hPa) Tendencia (hPa) Humedad (%)
2018-01-20 23:00:00 7.1 12 Sudoeste 22 Oeste 0 -- -- 89
2018-01-20 22:00:00 7.1 12 Sudoeste 18 Sudoeste 0 -- -- 87
2018-01-20 21:00:00 7 9 Oeste 21 Oeste 0 -- -- 85
2018-01-20 20:00:00 7.6 8 Sudoeste 16 Oeste 0 -- -- 78
2018-01-20 19:00:00 9.1 7 Oeste 21 Oeste 0 -- -- 71
2018-01-20 18:00:00 10.8 13 Oeste 24 Oeste 0 -- -- 67
2018-01-20 17:00:00 11.8 19 Oeste 33 Oeste 0 -- -- 61
2018-01-20 16:00:00 12.1 19 Oeste 35 Oeste 0 -- -- 59
2018-01-20 15:00:00 11.8 21 Oeste 33 Sudoeste 0 -- -- 58
2018-01-20 14:00:00 11.2 21 Oeste 36 Oeste 0 -- -- 52
2018-01-20 13:00:00 10.5 20 Oeste 35 Oeste 0 -- -- 53
2018-01-20 12:00:00 8.6 18 Sudoeste 28 Sudoeste 0 -- -- 61
2018-01-20 11:00:00 6.3 12 Sudoeste 19 Sudoeste 0 -- -- 76
2018-01-20 10:00:00 2.4 3 Sudoeste 12 Sudoeste 0 -- -- 93
2018-01-20 09:00:00 0.2 3 Sur 11 Sur 0 -- -- 95
2018-01-20 08:00:00 0 2 Sur 6 Sur 0 -- -- 95
2018-01-20 07:00:00 1.1 4 Sudoeste 10 Sur 0 -- -- 95
2018-01-20 06:00:00 0.8 5 Sur 8 Sur 0 -- -- 97
2018-01-20 05:00:00 0.4 7 Sudoeste 9 Sur 0 -- -- 96
2018-01-20 04:00:00 0.6 5 Sudoeste 8 Sur 0 -- -- 96
2018-01-20 03:00:00 0.5 7 Sur 8 Sur 0 -- -- 97
2018-01-20 02:00:00 0.8 5 Sudoeste 8 Sudoeste 0 -- -- 96
2018-01-20 01:00:00 1.1 7 Sur 9 Sur 0 -- -- 96
2018-01-20 00:00:00 1.6 5 Sur 7 Sur 0 -- -- 95
2018-01-19 23:00:00 1.8 6 Sur 9 Sur 0 -- -- 93
2018-01-19 22:00:00 2.7 5 Sur 9 Sur 0 -- -- 92
2018-01-19 21:00:00 3.2 8 Sur 10 Sur 0 -- -- 90
2018-01-19 20:00:00 4.8 6 Sur 9 Sur 0 -- -- 84
2018-01-19 19:00:00 8.9 3 Noroeste 9 Noroeste 0 -- -- 71
2018-01-19 18:00:00 11.8 3 Noroeste 10 Noroeste 0 -- -- 63
2018-01-19 17:00:00 11.9 4 Noroeste 15 Oeste 0 -- -- 60
2018-01-19 16:00:00 11.9 5 Nordeste 12 Norte 0 -- -- 61
2018-01-19 15:00:00 12.2 4 Sur 14 Este 0 -- -- 64
2018-01-19 14:00:00 11.1 8 Este 17 Nordeste 0 -- -- 67
2018-01-19 13:00:00 9.8 10 Norte 20 Norte 0 -- -- 70
2018-01-19 12:00:00 8.4 9 Este 15 Nordeste 0 -- -- 80
2018-01-19 11:00:00 5.6 2 Sudeste 8 Sur 0 -- -- 95
2018-01-19 10:00:00 0.2 3 Sur 6 Sudeste 0 -- -- 98
2018-01-19 09:00:00 -2.4 0 Calma 5 Noroeste 0 -- -- 94
2018-01-19 08:00:00 -1.9 6 Sur 10 Sur 0 -- -- 95
2018-01-19 07:00:00 -1.9 0 Calma 9 Norte 0 -- -- 94
2018-01-19 06:00:00 -1.2 6 Sur 8 Sur 0 -- -- 95
2018-01-19 05:00:00 -1.2 5 Sur 8 Sur 0 -- -- 95
2018-01-19 04:00:00 -1.1 6 Sur 8 Sur 0 -- -- 94
2018-01-19 03:00:00 -1 4 Sur 8 Sudeste 0 -- -- 94
2018-01-19 02:00:00 -0.7 6 Sur 7 Sur 0 -- -- 93
2018-01-19 01:00:00 -0.1 3 Sur 7 Sudeste 0 -- -- 91
2018-01-19 00:00:00 0.5 5 Sur 9 Sudoeste 0 -- -- 90
2018-01-18 23:00:00 1.3 5 Sur 8 Sur 0 -- -- 87
2018-01-18 22:00:00 1.9 8 Sur 9 Sudeste 0 -- -- 87
2018-01-18 21:00:00 3.1 7 Sur 10 Sur 0 -- -- 83
2018-01-18 20:00:00 4.8 6 Sur 9 Sur 0 -- -- 78
2018-01-18 19:00:00 9.3 0 Calma 7 Noroeste 0 -- -- 62
2018-01-18 18:00:00 13.1 2 Norte 5 Noroeste 0 -- -- 44
2018-01-18 17:00:00 13.9 3 Noroeste 10 Norte 0 -- -- 42
2018-01-18 16:00:00 13.3 6 Norte 12 Norte 0 -- -- 46
2018-01-18 15:00:00 13.3 4 Norte 11 Este 0 -- -- 50
2018-01-18 14:00:00 12.4 5 Este 10 Norte 0 -- -- 48
2018-01-18 13:00:00 10.4 5 Nordeste 12 Este 0 -- -- 65
2018-01-18 12:00:00 7.6 2 Sudeste 6 Nordeste 0 -- -- 84
2018-01-18 11:00:00 2.5 4 Norte 6 Norte 0 -- -- 95
2018-01-18 10:00:00 -0.4 3 Sur 6 Sur 0 -- -- 98
2018-01-18 09:00:00 -2.4 0 Calma 7 Sur 0 -- -- 96
2018-01-18 08:00:00 -2.3 4 Sur 6 Sur 0 -- -- 97
2018-01-18 07:00:00 -2.4 5 Sur 7 Sur 0 -- -- 96
2018-01-18 06:00:00 -2.4 0 Calma 6 Sur 0 -- -- 95
2018-01-18 05:00:00 -2.1 2 Sudoeste 5 Sur 0 -- -- 95
2018-01-18 04:00:00 -1.6 3 Sur 6 Sur 0 -- -- 96
2018-01-18 03:00:00 -1.2 5 Sur 9 Sur -- -- -- 96
2018-01-18 02:00:00 -1 4 Sur 10 Sur 0 -- -- 96
2018-01-18 01:00:00 -0.9 3 Sur 8 Sudeste 0 -- -- 93
2018-01-18 00:00:00 -0.3 5 Sur 6 Sur 0 -- -- 94
2018-01-17 23:00:00 0.7 2 Oeste 14 Sur 0 -- -- 93
2018-01-17 22:00:00 1.3 3 Sur 9 Sudeste 0 -- -- 91
2018-01-17 21:00:00 2.7 3 Sur 15 Sur 0 -- -- 90
2018-01-17 20:00:00 4.6 5 Sudeste 8 Sudeste 0 -- -- 85
2018-01-17 19:00:00 7.2 3 Este 12 Este 0 -- -- 78
2018-01-17 18:00:00 9.7 9 Este 19 Este 0 -- -- 67
2018-01-17 17:00:00 10.9 12 Este 23 Este 0 -- -- 64
2018-01-17 16:00:00 11 15 Este 22 Este 0 -- -- 68
2018-01-17 15:00:00 10.8 16 Este 28 Este 0 -- -- 68
2018-01-17 14:00:00 10.3 15 Este 23 Este 0 -- -- 77
2018-01-17 13:00:00 9.2 9 Este 17 Este 0 -- -- 82
2018-01-17 12:00:00 7.4 6 Nordeste 15 Nordeste 0 -- -- 92
2018-01-17 11:00:00 6.7 5 Nordeste 8 Nordeste 0 -- -- 98
2018-01-17 10:00:00 3.8 0 Calma 8 Sur 0 -- -- 98
2018-01-17 09:00:00 2.9 0 Calma 7 Sudoeste 0 -- -- 95
2018-01-17 08:00:00 4.2 6 Sur 10 Sudoeste 0 -- -- 96
2018-01-17 07:00:00 5.6 5 Sudoeste 12 Sudoeste 0 -- -- 95
2018-01-17 06:00:00 7.3 6 Sudoeste 12 Oeste 0 -- -- 94
2018-01-17 05:00:00 8.3 8 Oeste 17 Sudoeste 0 -- -- 93
2018-01-17 04:00:00 8.3 9 Sudoeste 21 Oeste 0 -- -- 94
2018-01-17 03:00:00 8.3 10 Sudoeste 19 Sudoeste 0 -- -- 94
2018-01-17 02:00:00 8.4 8 Sudoeste 16 Sudoeste 0 -- -- 93
2018-01-17 01:00:00 8.5 8 Sudoeste 19 Sudoeste 0 -- -- 93
2018-01-17 00:00:00 8.5 10 Sudoeste 16 Sudoeste 0 -- -- 93
2018-01-16 23:00:00 8.9 10 Sudoeste 22 Oeste 0 -- -- 92
2018-01-16 22:00:00 9.4 11 Sudoeste 21 Sudoeste 0 -- -- 91
2018-01-16 21:00:00 9.3 8 Sudoeste 15 Oeste 0 -- -- 89
2018-01-16 20:00:00 9.6 9 Sudoeste 15 Sudoeste 0 -- -- 90
2018-01-16 19:00:00 9.5 9 Sudoeste 16 Sudoeste 0 -- -- 89
2018-01-16 18:00:00 10.7 8 Oeste 26 Oeste 0 -- -- 85
2018-01-16 17:00:00 11 14 Oeste 30 Oeste 0 -- -- 85
2018-01-16 16:00:00 10.9 17 Oeste 32 Oeste 0 -- -- 89
2018-01-16 15:00:00 11 20 Oeste 34 Sudoeste 0 -- -- 88
2018-01-16 14:00:00 10.3 16 Oeste 30 Oeste 0 -- -- 91
2018-01-16 13:00:00 9.5 18 Sudoeste 30 Sudoeste 0 -- -- 94
2018-01-16 12:00:00 8.8 13 Sudoeste 20 Oeste 0 -- -- 97
2018-01-16 11:00:00 8.3 12 Sudoeste 18 Sudoeste 0 -- -- 97
2018-01-16 10:00:00 7.6 14 Sudoeste 21 Sudoeste 0 -- -- 98
2018-01-16 09:00:00 7 12 Sudoeste 21 Sur 0 -- -- 98
2018-01-16 08:00:00 6.6 10 Sudoeste 15 Sudoeste 0 -- -- 97
2018-01-16 07:00:00 6.3 10 Sudoeste 25 Sudoeste 0 -- -- 96
2018-01-16 06:00:00 5.9 17 Sudoeste 26 Sudoeste 0 -- -- 94
2018-01-16 05:00:00 5.9 13 Oeste 26 Sudoeste 0 -- -- 87
2018-01-16 04:00:00 6 12 Sudoeste 24 Sudoeste 0 -- -- 76
2018-01-16 03:00:00 5.7 14 Sudoeste 26 Sudoeste 0 -- -- 74
2018-01-16 02:00:00 5.3 13 Sudoeste 21 Sudoeste 0 -- -- 75
2018-01-16 01:00:00 4.9 10 Sudoeste 23 Sudoeste 0 -- -- 80
2018-01-16 00:00:00 5 12 Sudoeste 18 Sudoeste 0 -- -- 85
2018-01-15 23:00:00 5.5 9 Oeste 18 Oeste 0 -- -- 82
2018-01-15 22:00:00 5.5 9 Sudoeste 19 Sudoeste 0 -- -- 76
2018-01-15 21:00:00 5.5 10 Sudoeste 20 Sudoeste 0 -- -- 73
2018-01-15 20:00:00 5.6 9 Sudoeste 15 Sudoeste 0 -- -- 72
2018-01-15 19:00:00 6.4 8 Sudoeste 17 Oeste 0 -- -- 72
2018-01-15 18:00:00 7.1 10 Oeste 24 Oeste 0 -- -- 71
2018-01-15 17:00:00 8 15 Oeste 24 Oeste 0 -- -- 62
2018-01-15 16:00:00 8.2 17 Oeste 23 Oeste 0 -- -- 59
2018-01-15 15:00:00 8.1 12 Oeste 18 Oeste 0 -- -- 63
2018-01-15 14:00:00 7.1 7 Oeste 14 Oeste 0 -- -- 72
2018-01-15 13:00:00 7.1 2 Noroeste 8 Norte 0 -- -- 73
2018-01-15 12:00:00 4.7 0 Calma 6 Sudeste 0 -- -- 85
2018-01-15 11:00:00 1.8 3 Sur 6 Sur 0 -- -- 96
2018-01-15 10:00:00 -2 2 Sudeste 6 Sudeste 0 -- -- 98
2018-01-15 09:00:00 -3.9 3 Sudeste 4 Sudeste 0 -- -- 96
2018-01-15 08:00:00 -4 0 Calma 5 Sudeste 0 -- -- 95
2018-01-15 07:00:00 -4 3 Sur 6 Sur 0 -- -- 96
2018-01-15 06:00:00 -4.1 2 Sudeste 5 Sudeste 0 -- -- 95
2018-01-15 05:00:00 -3.7 5 Sur 7 Sur 0 -- -- 96
2018-01-15 04:00:00 -3.8 4 Sur 5 Sur 0 -- -- 95
2018-01-15 03:00:00 -3.4 5 Sur 6 Sur 0 -- -- 95
2018-01-15 02:00:00 -3.1 2 Norte 3 Sur 0 -- -- 95
2018-01-15 01:00:00 -2.7 0 Calma 6 Sudeste 0 -- -- 95
2018-01-15 00:00:00 -2.3 0 Calma 5 Sur 0 -- -- 93
2018-01-14 23:00:00 -1.6 5 Sur 6 Sur 0 -- -- 93
2018-01-14 22:00:00 -0.8 4 Sur 6 Sur 0 -- -- 91
2018-01-14 21:00:00 1.1 2 Norte 4 Nordeste 0 -- -- 87
2018-01-14 20:00:00 2.8 0 Calma 10 Norte 0 -- -- 85
2018-01-14 19:00:00 4 4 Norte 10 Noroeste 0 -- -- 80
2018-01-14 18:00:00 4.5 6 Noroeste 10 Norte 0 -- -- 73
2018-01-14 17:00:00 4.5 6 Noroeste 11 Noroeste 0 -- -- 73
2018-01-14 16:00:00 4.9 5 Este 13 Este 0 -- -- 72
2018-01-14 15:00:00 3.8 4 Noroeste 14 Noroeste 0 -- -- 79
2018-01-14 14:00:00 3.7 6 Norte 15 Noroeste 0 -- -- 78
2018-01-14 13:00:00 3.3 6 Norte 12 Norte 0 -- -- 85
2018-01-14 12:00:00 2.9 7 Noroeste 18 Noroeste 0 -- -- 90
2018-01-14 11:00:00 2.4 9 Noroeste 15 Oeste 0 -- -- 93
2018-01-14 10:00:00 1.8 8 Oeste 12 Oeste 0 -- -- 98
2018-01-14 09:00:00 1.6 7 Sudoeste 14 Oeste 0 -- -- 97
2018-01-14 08:00:00 1.8 7 Oeste 18 Oeste 0 -- -- 97
2018-01-14 07:00:00 1.8 7 Oeste 17 Oeste 0 -- -- 97
2018-01-14 06:00:00 1.9 10 Oeste 22 Oeste 0 -- -- 97
2018-01-14 05:00:00 2.3 10 Sudoeste 22 Sudoeste 0.2 -- -- 96
2018-01-14 04:00:00 2.5 14 Sudoeste 24 Sudoeste 0.2 -- -- 96
2018-01-14 03:00:00 2.4 8 Oeste 18 Sudoeste 0 -- -- 97
2018-01-14 02:00:00 2 10 Sudoeste 17 Sudoeste 0 -- -- 97
2018-01-14 01:00:00 2 9 Sudoeste 22 Sudoeste 0 -- -- 96
2018-01-14 00:00:00 2.2 12 Sudoeste 23 Sudoeste 0 -- -- 97
2018-01-13 23:00:00 2.7 12 Sudoeste 25 Sudoeste 0 -- -- 96
2018-01-13 22:00:00 2.6 10 Sudoeste 29 Sudoeste 0 -- -- 97
2018-01-13 21:00:00 1.9 10 Sudoeste 18 Sudoeste 0 -- -- 96
2018-01-13 20:00:00 1.8 8 Sudoeste 18 Sudoeste 0 -- -- 95
2018-01-13 19:00:00 2.5 14 Sudoeste 39 Oeste 2 -- -- 92
2018-01-13 18:00:00 4.4 11 Sudoeste 26 Oeste 0 -- -- 89
2018-01-13 17:00:00 5.3 14 Sudoeste 28 Oeste 0 -- -- 85
2018-01-13 16:00:00 5.3 18 Oeste 38 Oeste 0 -- -- 84
2018-01-13 15:00:00 4.4 9 Sudoeste 27 Sudoeste 0 -- -- 92
2018-01-13 14:00:00 3.6 18 Sudoeste 32 Sudoeste 0 -- -- 93
2018-01-13 13:00:00 2.2 21 Sudoeste 34 Oeste 0.6 -- -- 95
2018-01-13 12:00:00 3 18 Oeste 33 Oeste 0.2 -- -- 95
2018-01-13 11:00:00 3.9 13 Sudoeste 23 Sur 1.8 -- -- 94
2018-01-13 10:00:00 3.9 16 Sur 31 Sur 0.8 -- -- 90
2018-01-13 09:00:00 3.7 18 Sur 33 Sur 0.8 -- -- 88
2018-01-13 08:00:00 3.6 16 Sur 26 Sur 0 -- -- 82
2018-01-13 07:00:00 1.6 9 Sudeste 15 Sudeste 0 -- -- 88
2018-01-13 06:00:00 0 6 Sudeste 9 Sudeste 0 -- -- 95
2018-01-13 05:00:00 -0.6 3 Sur 8 Noroeste 0 -- -- 94
2018-01-13 04:00:00 -0.5 5 Sudoeste 6 Sudoeste 0 -- -- 93
2018-01-13 03:00:00 -0.2 0 Calma 4 Nordeste 0 -- -- 93
2018-01-13 02:00:00 0.2 2 Sur 4 Sur 0 -- -- 92
2018-01-13 01:00:00 0.7 0 Calma 4 Sudeste 0 -- -- 91
2018-01-13 00:00:00 1.3 0 Calma 4 Nordeste 0 -- -- 89
2018-01-12 23:00:00 1.8 3 Sur 4 Sur 0 -- -- 87
2018-01-12 22:00:00 2 3 Sudoeste 9 Sudeste 0 -- -- 85
2018-01-12 21:00:00 2.1 3 Sur 8 Sudeste 0 -- -- 86
2018-01-12 20:00:00 3.7 5 Sur 8 Sudeste 0 -- -- 84
2018-01-12 19:00:00 5.1 4 Sudoeste 6 Sudoeste 0 -- -- 78
2018-01-12 18:00:00 6.2 4 Oeste 10 Oeste 0 -- -- 76
2018-01-12 17:00:00 6.9 7 Oeste 11 Oeste 0 -- -- 71
2018-01-12 16:00:00 7.7 5 Oeste 11 Sudoeste 0 -- -- 63
2018-01-12 15:00:00 7.4 3 Sudoeste 12 Sur 0 -- -- 66
2018-01-12 14:00:00 6.5 5 Este 12 Sudeste 0 -- -- 72
2018-01-12 13:00:00 3.9 7 Este 9 Este 0 -- -- 89
2018-01-12 12:00:00 2.2 6 Este 13 Este 0 -- -- 95
2018-01-12 11:00:00 0.2 10 Este 16 Este 0 -- -- 98
2018-01-12 10:00:00 -2.3 3 Sur 5 Sur 0 -- -- 98
2018-01-12 09:00:00 -3.7 4 Sudeste 6 Sudoeste 0 -- -- 96
2018-01-12 08:00:00 -3.2 0 Calma 6 Oeste 0 -- -- 95
2018-01-12 07:00:00 -2.9 3 Sur 6 Sur 0 -- -- 96
2018-01-12 06:00:00 -2.7 5 Sur 7 Sur 0 -- -- 95
2018-01-12 05:00:00 -2 4 Sur 6 Sudeste 0 -- -- 94
2018-01-12 04:00:00 -1 4 Sudeste 9 Sudoeste 0 -- -- 95
2018-01-12 03:00:00 -0.2 6 Sudoeste 10 Sudoeste 0 -- -- 94
2018-01-12 02:00:00 0.3 6 Sur 16 Sudoeste 0 -- -- 95
2018-01-12 01:00:00 -0.3 8 Oeste 12 Sudoeste 0 -- -- 94
2018-01-12 00:00:00 0.4 6 Sudoeste 10 Sudoeste 0 -- -- 92
2018-01-11 23:00:00 1.2 7 Sudoeste 12 Sudoeste 0 -- -- 90
2018-01-11 22:00:00 1.6 7 Oeste 13 Oeste 0 -- -- 87
2018-01-11 21:00:00 1.5 6 Sudoeste 13 Oeste 0 -- -- 86
2018-01-11 20:00:00 2.7 9 Oeste 19 Oeste 0 -- -- 82
2018-01-11 19:00:00 3.6 4 Oeste 15 Oeste 0 -- -- 77
2018-01-11 18:00:00 5.1 8 Oeste 34 Oeste 0 -- -- 72
2018-01-11 17:00:00 5.8 14 Noroeste 41 Oeste 0 -- -- 68
2018-01-11 16:00:00 6 19 Oeste 42 Oeste 0 -- -- 66
2018-01-11 15:00:00 5.8 21 Oeste 41 Oeste 0 -- -- 68
2018-01-11 14:00:00 5.9 19 Oeste 36 Oeste 0 -- -- 72
2018-01-11 13:00:00 5.9 23 Oeste 42 Noroeste 0 -- -- 72
2018-01-11 12:00:00 4.7 25 Oeste 40 Oeste 0 -- -- 75
2018-01-11 11:00:00 4.2 24 Oeste 54 Oeste 0 -- -- 79
2018-01-11 10:00:00 3 16 Oeste 26 Oeste 0 -- -- 90
2018-01-11 09:00:00 2.5 14 Oeste 38 Oeste 0 -- -- 91
2018-01-11 08:00:00 3.2 17 Oeste 43 Oeste 0 -- -- 92
2018-01-11 07:00:00 3.3 15 Oeste 33 Oeste 0 -- -- 95
2018-01-11 06:00:00 3.4 19 Oeste 37 Oeste 0 -- -- 93
2018-01-11 05:00:00 3 21 Oeste 42 Oeste 0 -- -- 95
2018-01-11 04:00:00 3.4 19 Oeste 43 Oeste 0 -- -- 93
2018-01-11 03:00:00 3.4 26 Oeste 46 Oeste 0 -- -- 93
2018-01-11 02:00:00 3.2 23 Oeste 45 Sudoeste 0 -- -- 93
2018-01-11 01:00:00 2.7 22 Sudoeste 34 Sudoeste 0 -- -- 91
2018-01-11 00:00:00 2.5 21 Sudoeste 32 Sudoeste 0 -- -- 92
2018-01-10 23:00:00 2.4 21 Sudoeste 32 Sudoeste 0 -- -- 92
2018-01-10 22:00:00 2.9 18 Sudoeste 32 Oeste 0 -- -- 91
2018-01-10 21:00:00 2.9 18 Oeste 28 Oeste 0 -- -- 92
2018-01-10 20:00:00 3.2 16 Sudoeste 35 Oeste 0 -- -- 90
2018-01-10 19:00:00 4.1 23 Oeste 46 Oeste 0 -- -- 85
2018-01-10 18:00:00 5.5 27 Oeste 48 Oeste 0.2 -- -- 82
2018-01-10 17:00:00 5.9 20 Oeste 47 Oeste 1.6 -- -- 89
2018-01-10 16:00:00 6.8 30 Oeste 55 Oeste 0 -- -- 85
2018-01-10 15:00:00 6.4 27 Sudoeste 50 Sudoeste 0.4 -- -- 92
2018-01-10 14:00:00 5.9 19 Sudoeste 40 Sur 0.8 -- -- 93
2018-01-10 13:00:00 6 28 Sur 39 Sur 0 -- -- 87
2018-01-10 12:00:00 6.9 22 Sudoeste 36 Sudoeste 0 -- -- 85
2018-01-10 11:00:00 6.3 15 Sudoeste 23 Sudoeste 0 -- -- 95
2018-01-10 10:00:00 5 12 Sudoeste 20 Sur 0 -- -- 95
2018-01-10 09:00:00 4.4 8 Sudoeste 15 Sudoeste 0 -- -- 95
2018-01-10 08:00:00 4.5 11 Sudoeste 22 Sudoeste 0 -- -- 96
2018-01-10 07:00:00 4.7 12 Sudoeste 23 Sudoeste 0 -- -- 95
2018-01-10 06:00:00 5.1 18 Oeste 33 Sudoeste 0 -- -- 94
2018-01-10 05:00:00 5 11 Sudoeste 20 Sudoeste 0.2 -- -- 95
2018-01-10 04:00:00 5.1 10 Sudoeste 20 Sudoeste 0 -- -- 93
2018-01-10 03:00:00 4.9 8 Sudoeste 14 Sudoeste 0 -- -- 93
2018-01-10 02:00:00 4.2 6 Sur 13 Sudoeste 0 -- -- 93
2018-01-10 01:00:00 4.5 10 Sur 15 Sudoeste 0 -- -- 92
2018-01-10 00:00:00 4.8 11 Sudoeste 21 Sur 0 -- -- 93
2018-01-09 23:00:00 4.6 8 Sudoeste 23 Oeste 0 -- -- 93
2018-01-09 22:00:00 5.4 11 Sudoeste 22 Sudoeste 0 -- -- 90
2018-01-09 21:00:00 5.6 8 Sudoeste 26 Oeste 0 -- -- 88
2018-01-09 20:00:00 5.4 14 Sudoeste 29 Sur 0 -- -- 89
2018-01-09 19:00:00 5 16 Sudoeste 25 Sudoeste 0 -- -- 89
2018-01-09 18:00:00 4.8 21 Sudoeste 33 Sudoeste 0 -- -- 88
2018-01-09 17:00:00 4.3 10 Sudeste 23 Sur 0 -- -- 86
2018-01-09 16:00:00 4.3 20 Sur 37 Sudoeste 0 -- -- 84
2018-01-09 15:00:00 4.1 18 Sudoeste 43 Sudoeste 0 -- -- 85
2018-01-09 14:00:00 3.6 21 Sudoeste 53 Sudoeste 0.2 -- -- 85
2018-01-09 13:00:00 2.9 31 Sur 47 Sudoeste 0 -- -- 85
2018-01-09 12:00:00 2.4 25 Sur 44 Sudoeste 0 -- -- 89
2018-01-09 11:00:00 1.6 19 Sur 33 Sur 0.6 -- -- 91
2018-01-09 10:00:00 2.3 21 Sur 37 Sur 0 -- -- 84
2018-01-09 09:00:00 1.5 18 Sudoeste 28 Sudoeste 0 -- -- 89
2018-01-09 08:00:00 -1.3 4 Sur 9 Sur 0 -- -- 95
2018-01-09 07:00:00 -1.2 3 Norte 6 Sudoeste 0 -- -- 94
2018-01-09 06:00:00 -0.6 4 Sudoeste 15 Sur 0 -- -- 93
2018-01-09 05:00:00 -0.7 10 Sur 15 Sur 0 -- -- 94
2018-01-09 04:00:00 -2.4 7 Sur 12 Sur 0 -- -- 97
2018-01-09 03:00:00 -3.5 7 Sur 12 Sur 0 -- -- 96
2018-01-09 02:00:00 -4.3 2 Sur 8 Sur 0 -- -- 93
2018-01-09 01:00:00 -4 6 Sur 8 Sur 0 -- -- 94
2018-01-09 00:00:00 -4.1 3 Sur 7 Sur 0 -- -- 93
2018-01-08 23:00:00 -3.5 5 Sur 8 Sur 0 -- -- 94
2018-01-08 22:00:00 -3.2 4 Sur 8 Sur 0 -- -- 94
2018-01-08 21:00:00 -2.9 6 Sur 10 Sur 0 -- -- 93
2018-01-08 20:00:00 -2 6 Sur 9 Sudeste 0 -- -- 91
2018-01-08 19:00:00 -0.3 4 Sur 8 Sur 0 -- -- 88
2018-01-08 18:00:00 2.4 4 Sudeste 10 Este 0 -- -- 82
2018-01-08 17:00:00 3 4 Sudeste 11 Sudeste 0 -- -- 78
2018-01-08 16:00:00 3.8 8 Sudeste 12 Sudeste 0 -- -- 77
2018-01-08 15:00:00 3 3 Norte 12 Nordeste 0 -- -- 81
2018-01-08 14:00:00 2 6 Norte 12 Noroeste 0 -- -- 84
2018-01-08 13:00:00 1.5 7 Noroeste 11 Noroeste 0 -- -- 88
2018-01-08 12:00:00 0.7 2 Sudoeste 7 Nordeste 0 -- -- 86
2018-01-08 11:00:00 -2.4 5 Norte 8 Norte 0 -- -- 91
2018-01-08 10:00:00 -4.9 3 Sudoeste 8 Sudeste 0 -- -- 96
2018-01-08 09:00:00 -7.3 7 Sudeste 9 Sudeste 0 -- -- 94
2018-01-08 08:00:00 -6.6 3 Este 7 Sur 0 -- -- 93
2018-01-08 07:00:00 -5.4 4 Sudeste 10 Este 0 -- -- 94
2018-01-08 06:00:00 -4.4 5 Este 10 Este 0 -- -- 95
2018-01-08 05:00:00 -4.8 5 Este 8 Nordeste 0 -- -- 92
2018-01-08 04:00:00 -3.2 0 Calma 17 Este 0 -- -- 94
2018-01-08 03:00:00 -2.3 13 Este 18 Este 0 -- -- 96
2018-01-08 02:00:00 -1.7 11 Este 17 Este 0 -- -- 96
2018-01-08 01:00:00 -1 11 Este 23 Nordeste 0 -- -- 96
2018-01-08 00:00:00 -0.8 14 Nordeste 24 Nordeste 0 -- -- 97
2018-01-07 23:00:00 -0.8 8 Nordeste 17 Nordeste 0 -- -- 97
2018-01-07 22:00:00 -0.1 13 Nordeste 23 Este 0.2 -- -- 98
2018-01-07 21:00:00 0.2 15 Nordeste 23 Este 0 -- -- 98
2018-01-07 20:00:00 0.4 12 Nordeste 19 Este 0 -- -- 98
2018-01-07 19:00:00 0.3 4 Nordeste 10 Norte 0.4 -- -- 98
2018-01-07 18:00:00 0.3 3 Noroeste 6 Oeste 3 -- -- 97
2018-01-07 17:00:00 0.5 5 Oeste 13 Noroeste 2 -- -- 96
2018-01-07 16:00:00 2 9 Noroeste 19 Noroeste 1.6 -- -- 92
2018-01-07 15:00:00 2.6 7 Noroeste 12 Noroeste 0.2 -- -- 94
2018-01-07 14:00:00 2.1 6 Noroeste 10 Oeste 0.4 -- -- 96
2018-01-07 13:00:00 1.3 6 Noroeste 15 Oeste 0.2 -- -- 97
2018-01-07 12:00:00 0.5 6 Noroeste 16 Noroeste 0.8 -- -- 96
2018-01-07 11:00:00 0.7 10 Noroeste 28 Norte 0.4 -- -- 94
2018-01-07 10:00:00 1.4 8 Noroeste 19 Norte 0 -- -- 89
2018-01-07 09:00:00 0.6 5 Noroeste 20 Oeste 0 -- -- 96
2018-01-07 08:00:00 0.5 10 Noroeste 22 Noroeste 0 -- -- 96
2018-01-07 07:00:00 0.4 10 Noroeste 21 Noroeste 0.2 -- -- 96
2018-01-07 06:00:00 0.3 13 Noroeste 23 Noroeste 0 -- -- 95
2018-01-07 05:00:00 0.6 15 Noroeste 27 Norte 0 -- -- 93
2018-01-07 04:00:00 1.4 14 Norte 28 Norte 0 -- -- 87
2018-01-07 03:00:00 1.4 10 Norte 24 Norte 0 -- -- 85
2018-01-07 02:00:00 2.2 11 Noroeste 26 Noroeste 0 -- -- 75
2018-01-07 01:00:00 2.1 10 Noroeste 21 Noroeste 0 -- -- 75
2018-01-07 00:00:00 2.1 8 Noroeste 13 Noroeste 0 -- -- 78
2018-01-06 23:00:00 2.2 10 Noroeste 22 Noroeste 0 -- -- 81
2018-01-06 22:00:00 1.7 4 Noroeste 7 Noroeste 0 -- -- 93
2018-01-06 21:00:00 1.6 5 Noroeste 10 Oeste 0 -- -- 94
2018-01-06 20:00:00 1.6 3 Nordeste 9 Nordeste 0 -- -- 91
2018-01-06 19:00:00 1.9 4 Norte 12 Nordeste 0 -- -- 90
2018-01-06 18:00:00 2.2 6 Norte 20 Noroeste 0 -- -- 89
2018-01-06 17:00:00 2.3 14 Norte 27 Norte 0 -- -- 87
2018-01-06 16:00:00 2.4 13 Norte 26 Norte 0.2 -- -- 90
2018-01-06 15:00:00 2.4 13 Norte 27 Norte 0.2 -- -- 94
2018-01-06 14:00:00 2.6 13 Norte 26 Norte 0 -- -- 92
2018-01-06 13:00:00 2.3 9 Norte 21 Noroeste 0 -- -- 90
2018-01-06 12:00:00 2.4 11 Norte 23 Norte 0 -- -- 84
2018-01-06 11:00:00 1.8 7 Noroeste 12 Noroeste 0 -- -- 93
2018-01-06 10:00:00 1.6 5 Noroeste 12 Noroeste 0 -- -- 94
2018-01-06 09:00:00 1.7 5 Noroeste 13 Noroeste 0 -- -- 91
2018-01-06 08:00:00 1.8 5 Norte 13 Noroeste 0 -- -- 92
2018-01-06 07:00:00 2 4 Norte 12 Noroeste 0 -- -- 93
2018-01-06 06:00:00 2 4 Noroeste 9 Oeste 0 -- -- 93
2018-01-06 05:00:00 2 5 Noroeste 9 Oeste 0 -- -- 92
2018-01-06 04:00:00 2.1 5 Oeste 8 Oeste 0 -- -- 92
2018-01-06 03:00:00 2.4 4 Sudoeste 9 Oeste 0 -- -- 91
2018-01-06 02:00:00 2.8 5 Oeste 13 Noroeste 0 -- -- 87
2018-01-06 01:00:00 3.3 7 Noroeste 13 Noroeste 0 -- -- 90
2018-01-06 00:00:00 4 8 Oeste 11 Noroeste 0 -- -- 91
2018-01-05 23:00:00 4.5 3 Sudeste 8 Sudoeste 0 -- -- 95
2018-01-05 22:00:00 4.6 5 Sudoeste 9 Sudoeste 0.4 -- -- 93
2018-01-05 21:00:00 4.7 5 Oeste 9 Oeste 0 -- -- 95
2018-01-05 20:00:00 4.9 6 Oeste 16 Noroeste 1.2 -- -- 95
2018-01-05 19:00:00 5.3 12 Noroeste 25 Oeste 2.8 -- -- 95
2018-01-05 18:00:00 6.4 12 Oeste 28 Oeste 3.4 -- -- 94
2018-01-05 17:00:00 7.6 9 Oeste 27 Oeste 0.4 -- -- 94
2018-01-05 16:00:00 8 14 Oeste 23 Oeste 1 -- -- 93
2018-01-05 15:00:00 8.5 12 Sudoeste 25 Oeste 0 -- -- 89
2018-01-05 14:00:00 8.4 9 Sudoeste 23 Sudoeste 0 -- -- 92
2018-01-05 13:00:00 8 14 Sudoeste 27 Sudoeste 0.4 -- -- 94
2018-01-05 12:00:00 7.7 17 Oeste 38 Oeste 0.8 -- -- 94
2018-01-05 11:00:00 7.7 17 Sudoeste 41 Oeste 1 -- -- 92
2018-01-05 10:00:00 8.6 17 Sudoeste 42 Sudoeste 0 -- -- 85
2018-01-05 09:00:00 8.3 19 Sudoeste 34 Sur 0 -- -- 84
2018-01-05 08:00:00 8 24 Sur 36 Sur 0 -- -- 85
2018-01-05 07:00:00 8.8 25 Sur 45 Sudoeste 0 -- -- 80
2018-01-05 06:00:00 8.8 22 Sudoeste 40 Sudoeste 0 -- -- 79
2018-01-05 05:00:00 8.7 21 Sudoeste 50 Sudoeste 0 -- -- 78
2018-01-05 04:00:00 8.6 24 Sudoeste 45 Sudoeste 0 -- -- 77
2018-01-05 03:00:00 8.4 23 Sudoeste 44 Oeste 0 -- -- 78
2018-01-05 02:00:00 8.7 26 Oeste 52 Oeste 0 -- -- 78
2018-01-05 01:00:00 9.1 24 Sudoeste 46 Oeste 0 -- -- 76
2018-01-05 00:00:00 8.8 13 Oeste 26 Sudoeste 0 -- -- 88
2018-01-04 23:00:00 9.2 16 Oeste 26 Sudoeste 0 -- -- 89
2018-01-04 22:00:00 9.7 13 Oeste 22 Sudoeste 0 -- -- 89
2018-01-04 21:00:00 10.1 14 Sudoeste 23 Sudoeste 0 -- -- 83
2018-01-04 20:00:00 10.4 6 Sudoeste 14 Sudoeste 0 -- -- 83
2018-01-04 19:00:00 11 8 Oeste 24 Sudoeste 0 -- -- 79
2018-01-04 18:00:00 11.3 17 Sudoeste 35 Oeste 0 -- -- 74
2018-01-04 17:00:00 11.8 22 Oeste 40 Sudoeste 0 -- -- 72
2018-01-04 16:00:00 11.9 21 Sudoeste 39 Sudoeste 0 -- -- 71
2018-01-04 15:00:00 11.1 18 Oeste 36 Sudoeste 0 -- -- 79
2018-01-04 14:00:00 10.3 15 Oeste 36 Sudoeste 0 -- -- 90
2018-01-04 13:00:00 10.4 19 Oeste 32 Oeste 0 -- -- 90
2018-01-04 12:00:00 10.4 22 Sudoeste 36 Sudoeste 0 -- -- 89
2018-01-04 11:00:00 10 14 Sudoeste 26 Sudoeste 0 -- -- 89
2018-01-04 10:00:00 9.4 14 Oeste 30 Sudoeste 0 -- -- 93
2018-01-04 09:00:00 10 12 Sudoeste 20 Sudoeste 0 -- -- 90
2018-01-04 08:00:00 10.1 10 Sudoeste 23 Sudoeste 0 -- -- 90
2018-01-04 07:00:00 9.9 8 Sudoeste 26 Sudoeste 0 -- -- 92
2018-01-04 06:00:00 10 13 Sudoeste 23 Sudoeste 0 -- -- 92
2018-01-04 05:00:00 10.1 13 Sudoeste 23 Sudoeste 0 -- -- 91
2018-01-04 04:00:00 10.2 12 Sudoeste 20 Sudoeste 0 -- -- 91
2018-01-04 03:00:00 10.2 10 Sudoeste 20 Sudoeste 0 -- -- 94
2018-01-04 02:00:00 10.5 12 Sudoeste 19 Oeste 0 -- -- 95
2018-01-04 01:00:00 10.8 14 Sudoeste 20 Oeste 0 -- -- 94
2018-01-04 00:00:00 11 10 Oeste 25 Sudoeste 0 -- -- 93
2018-01-03 23:00:00 10.9 7 Oeste 19 Sudoeste 0 -- -- 94
2018-01-03 22:00:00 11.2 11 Sudoeste 26 Sudoeste 0 -- -- 92
2018-01-03 21:00:00 11.3 15 Sudoeste 24 Sudoeste 0 -- -- 91
2018-01-03 20:00:00 11.6 13 Sudoeste 25 Sudoeste 0 -- -- 90
2018-01-03 19:00:00 11.9 14 Sudoeste 22 Sudoeste 0 -- -- 89
2018-01-03 18:00:00 12.2 13 Sudoeste 30 Sudoeste 0 -- -- 86
2018-01-03 17:00:00 13.7 18 Oeste 28 Oeste 0 -- -- 82
2018-01-03 16:00:00 13.6 17 Oeste 37 Oeste 0 -- -- 83
2018-01-03 15:00:00 13 18 Oeste 34 Oeste 0 -- -- 85
2018-01-03 14:00:00 12.6 22 Oeste 33 Oeste 0 -- -- 88
2018-01-03 13:00:00 12.4 23 Sudoeste 32 Sudoeste 0 -- -- 90
2018-01-03 12:00:00 11.3 12 Oeste 21 Sudoeste 0 -- -- 96
2018-01-03 11:00:00 10.8 13 Sudoeste 21 Sudoeste 0 -- -- 95
2018-01-03 10:00:00 10.3 12 Sudoeste 24 Sudoeste 0 -- -- 96
2018-01-03 09:00:00 9.8 11 Sudoeste 20 Sudoeste 0 -- -- 97
2018-01-03 08:00:00 10 9 Sudoeste 19 Sudoeste 0 -- -- 96
2018-01-03 07:00:00 10.3 9 Sudoeste 19 Sudoeste 0 -- -- 97
2018-01-03 06:00:00 10.4 10 Sudoeste 22 Sudoeste 0 -- -- 97
2018-01-03 05:00:00 10.2 9 Sudoeste 24 Sudoeste 0 -- -- 97
2018-01-03 04:00:00 10.2 12 Sudoeste 26 Sudoeste 0 -- -- 97
2018-01-03 03:00:00 10.2 15 Sudoeste 29 Sudoeste 0 -- -- 97
2018-01-03 02:00:00 10.2 15 Sudoeste 29 Oeste 0 -- -- 97
2018-01-03 01:00:00 10.3 15 Sudoeste 27 Sudoeste 0 -- -- 98
2018-01-03 00:00:00 10.3 14 Sudoeste 23 Sudoeste 0 -- -- 98
2018-01-02 23:00:00 10.2 13 Sudoeste 24 Sudoeste 0 -- -- 98
2018-01-02 22:00:00 10.1 14 Sudoeste 24 Sudoeste 0 -- -- 98
2018-01-02 21:00:00 9.9 14 Sudoeste 26 Sudoeste 0 -- -- 98
2018-01-02 20:00:00 9.8 12 Sudoeste 24 Sudoeste 0 -- -- 97
2018-01-02 19:00:00 9.7 10 Sudoeste 22 Sudoeste 0 -- -- 95
2018-01-02 18:00:00 9.5 13 Sudoeste 22 Sudoeste 0 -- -- 96
2018-01-02 17:00:00 9.5 14 Sudoeste 28 Sudoeste 0 -- -- 95
2018-01-02 16:00:00 9.3 15 Sudoeste 30 Sudoeste 0 -- -- 96
2018-01-02 15:00:00 9.2 14 Sudoeste 30 Sudoeste 0 -- -- 95
2018-01-02 14:00:00 9.1 16 Sudoeste 30 Oeste 0 -- -- 94
2018-01-02 13:00:00 8.9 17 Sudoeste 30 Oeste 0 -- -- 94
2018-01-02 12:00:00 8.5 18 Sudoeste 34 Sudoeste 0 -- -- 96
2018-01-02 11:00:00 7.9 17 Sudoeste 26 Sudoeste 0 -- -- 95
2018-01-02 10:00:00 7.2 15 Sudoeste 24 Sudoeste 0 -- -- 94
2018-01-02 09:00:00 6.3 15 Sudoeste 30 Sudoeste 0 -- -- 95
2018-01-02 08:00:00 6 13 Sudoeste 21 Sudoeste 0 -- -- 95
2018-01-02 07:00:00 5.7 11 Sudoeste 17 Sur 0 -- -- 93
2018-01-02 06:00:00 6.3 12 Sudoeste 28 Sudoeste 0 -- -- 92
2018-01-02 05:00:00 6.8 16 Sudoeste 28 Oeste 0 -- -- 90
2018-01-02 04:00:00 6.8 15 Sudoeste 27 Sudoeste 0 -- -- 89
2018-01-02 03:00:00 6.6 15 Sudoeste 29 Sudoeste 0 -- -- 89
2018-01-02 02:00:00 6.4 17 Sudoeste 31 Sudoeste 0 -- -- 90
2018-01-02 01:00:00 6.5 16 Sudoeste 28 Sudoeste 0 -- -- 90
2018-01-02 00:00:00 6.7 15 Sudoeste 35 Sudoeste 0 -- -- 89
2018-01-01 23:00:00 7.4 19 Sudoeste 35 Sudoeste 0 -- -- 90
2018-01-01 22:00:00 7.9 21 Sudoeste 33 Oeste 0 -- -- 89
2018-01-01 21:00:00 8.1 15 Sudoeste 33 Sudoeste 0 -- -- 89
2018-01-01 20:00:00 8.2 22 Sudoeste 41 Sudoeste 0 -- -- 88
2018-01-01 19:00:00 8.5 22 Sudoeste 37 Oeste 0 -- -- 88
2018-01-01 18:00:00 8.4 23 Sudoeste 36 Sudoeste 0 -- -- 89
2018-01-01 17:00:00 7.9 22 Sudoeste 37 Sudoeste 0 -- -- 92
2018-01-01 16:00:00 7.3 19 Sudoeste 33 Sudoeste 0 -- -- 93
2018-01-01 15:00:00 6.6 16 Sudoeste 32 Sudoeste 0 -- -- 94
2018-01-01 14:00:00 7.3 23 Sudoeste 45 Sudoeste 0 -- -- 86
2018-01-01 13:00:00 7.7 24 Sudoeste 45 Sudoeste 0 -- -- 78
2018-01-01 12:00:00 7.2 23 Sudoeste 38 Oeste 0 -- -- 76
2018-01-01 11:00:00 6.6 24 Sudoeste 46 Sudoeste 0 -- -- 79
2018-01-01 10:00:00 4.6 17 Sudoeste 23 Oeste 0 -- -- 83
2018-01-01 09:00:00 2.5 13 Sudoeste 20 Sudoeste 0 -- -- 88
2018-01-01 08:00:00 1.9 8 Sudoeste 20 Sur 0 -- -- 91
2018-01-01 07:00:00 2.3 10 Sudoeste 17 Sur 0 -- -- 91
2018-01-01 06:00:00 1.8 11 Sur 19 Sur 0 -- -- 92
2018-01-01 05:00:00 2.1 10 Sudoeste 20 Sur 0 -- -- 93
2018-01-01 04:00:00 2 14 Sur 19 Sur 0 -- -- 92
2018-01-01 03:00:00 1.8 10 Sur 16 Sur 0 -- -- 93
2018-01-01 02:00:00 2.2 12 Sur 17 Sur 0 -- -- 94
2018-01-01 01:00:00 2.8 10 Sudoeste 15 Sudoeste 0 -- -- 93
2018-01-01 00:00:00 3.4 10 Sudoeste 20 Sudoeste 0 -- -- 92
2017-12-31 23:00:00 4 13 Sudoeste 21 Sudoeste 0 -- -- 92
2017-12-31 22:00:00 4.3 10 Sudoeste 24 Oeste 0 -- -- 90
2017-12-31 21:00:00 4.8 14 Oeste 24 Oeste 0 -- -- 89
2017-12-31 20:00:00 5 12 Oeste 26 Oeste 0 -- -- 90
2017-12-31 19:00:00 5.6 15 Oeste 28 Oeste 0 -- -- 89
2017-12-31 18:00:00 6.2 14 Oeste 44 Oeste 0 -- -- 85
2017-12-31 17:00:00 7.2 30 Oeste 50 Oeste 0 -- -- 86
2017-12-31 16:00:00 7.3 19 Oeste 60 Oeste 2 -- -- 91
2017-12-31 15:00:00 10.1 27 Sudoeste 49 Sudoeste 0 -- -- 82
2017-12-31 14:00:00 9.7 18 Sudoeste 42 Sudoeste 0.2 -- -- 82
2017-12-31 13:00:00 10.2 24 Sudoeste 39 Sur 0 -- -- 75
2017-12-31 12:00:00 9.9 21 Sudoeste 43 Sudoeste 0 -- -- 73
2017-12-31 11:00:00 9.4 28 Sudoeste 46 Sudoeste 0 -- -- 73
2017-12-31 10:00:00 8.9 21 Sudoeste 42 Sudoeste 0 -- -- 72
2017-12-31 09:00:00 8.5 17 Sudoeste 31 Sudoeste 0 -- -- 80
2017-12-31 08:00:00 8.3 13 Sudoeste 28 Sudoeste 0 -- -- 79
2017-12-31 07:00:00 8.1 18 Sudoeste 27 Sudoeste 0 -- -- 81
2017-12-31 06:00:00 8.4 9 Sudoeste 22 Sudoeste 0 -- -- 83
2017-12-31 05:00:00 8.4 12 Sudoeste 21 Sur 0 -- -- 85
2017-12-31 04:00:00 8.2 7 Sur 15 Sudoeste 0 -- -- 87
2017-12-31 03:00:00 8.1 8 Sur 14 Sur 0 -- -- 90
2017-12-31 02:00:00 7.9 5 Sur 8 Sur 0 -- -- 92
2017-12-31 01:00:00 7.9 6 Sudoeste 13 Sur 0 -- -- 91